Time;durP1;ratioP1;P1;durP2;ratioP2;P2;SDS_P1;SDS_P2;PMS_P1;PMS_P2;Temp;Humidity;BMP_temperature;BMP_pressure;BME280_temperature;BME280_humidity;BME280_pressure;Samples;Min_cycle;Max_cycle;Signal;HPM_P1;HPM_P2
2023/10/25 00:00:27;;;;;;;18.63;5.03;;;;;;;14.71;95.03;64507.25;5091374;28;20192;-54
2023/10/25 00:02:53;;;;;;;14.70;5.22;;;;;;;14.75;94.85;64508.56;5091853;28;20256;-54
2023/10/25 00:05:18;;;;;;;15.82;5.22;;;;;;;14.80;95.22;64517.16;5091001;28;20192;-54
2023/10/25 00:07:44;;;;;;;12.32;5.00;;;;;;;14.85;93.82;64522.63;5091292;28;20372;-54
2023/10/25 00:10:10;;;;;;;18.20;5.57;;;;;;;14.95;93.69;64530.53;5072962;28;20270;-54
2023/10/25 00:12:36;;;;;;;17.75;5.10;;;;;;;14.81;94.92;64515.16;5091216;28;20211;-56
2023/10/25 00:15:03;;;;;;;23.67;5.95;;;;;;;14.90;96.84;64525.06;5090966;28;20199;-54
2023/10/25 00:17:29;;;;;;;16.63;5.55;;;;;;;14.86;95.15;64523.75;5072808;28;20712;-54
2023/10/25 00:19:54;;;;;;;14.93;5.50;;;;;;;14.73;95.14;64506.91;5091132;28;20192;-53
2023/10/25 00:22:20;;;;;;;12.82;4.65;;;;;;;14.82;93.05;64516.81;5089308;28;20219;-55
2023/10/25 00:24:45;;;;;;;12.63;5.05;;;;;;;14.65;95.20;64498.13;5091069;28;20627;-54
2023/10/25 00:27:11;;;;;;;13.95;5.93;;;;;;;14.73;95.93;64511.97;5092156;22;20715;-54
2023/10/25 00:29:36;;;;;;;11.25;5.30;;;;;;;14.66;96.73;64501.22;5069265;28;20203;-54
2023/10/25 00:32:02;;;;;;;15.52;5.78;;;;;;;14.59;97.66;64488.44;5070629;28;20204;-52
2023/10/25 00:34:27;;;;;;;10.10;5.25;;;;;;;14.64;97.67;64499.00;5069590;28;20205;-58
2023/10/25 00:36:53;;;;;;;12.35;5.00;;;;;;;14.61;94.92;64495.69;5070556;28;20204;-54
2023/10/25 00:39:19;;;;;;;17.98;6.00;;;;;;;14.71;96.01;64507.25;5070506;28;20201;-58
2023/10/25 00:41:44;;;;;;;12.35;4.53;;;;;;;14.87;96.08;64522.28;5070532;28;20211;-55
2023/10/25 00:44:10;;;;;;;13.45;4.25;;;;;;;14.79;95.66;64516.03;5070366;28;20204;-54
2023/10/25 00:46:36;;;;;;;16.90;4.65;;;;;;;14.75;94.85;64506.56;5070282;28;20279;-54
2023/10/25 00:49:02;;;;;;;11.50;4.93;;;;;;;14.80;95.93;64511.53;5070371;28;20201;-55
2023/10/25 00:51:28;;;;;;;11.52;4.50;;;;;;;14.88;93.25;64522.84;5070227;28;20747;-56
2023/10/25 00:53:55;;;;;;;11.98;5.78;;;;;;;14.82;94.82;64518.78;5070488;28;20208;-54
2023/10/25 00:56:23;;;;;;;16.52;6.05;;;;;;;14.71;96.79;64504.72;5070328;28;20205;-55
2023/10/25 00:58:50;;;;;;;9.40;4.93;;;;;;;14.68;96.44;64501.44;5071150;28;20220;-56
2023/10/25 01:01:18;;;;;;;15.40;5.30;;;;;;;14.51;97.64;64485.28;5073656;28;20192;-57
2023/10/25 01:03:43;;;;;;;10.57;5.13;;;;;;;14.36;98.71;64468.25;5073815;28;20204;-54
2023/10/25 01:06:09;;;;;;;11.85;5.35;;;;;;;14.39;99.08;64471.53;5073861;28;20756;-63
2023/10/25 01:08:35;;;;;;;9.65;4.70;;;;;;;14.60;98.57;64492.63;5073776;28;20295;-56
2023/10/25 01:11:01;;;;;;;14.93;4.68;;;;;;;14.69;96.51;64501.97;5073591;28;20785;-54
2023/10/25 01:13:26;;;;;;;14.25;4.32;;;;;;;14.66;96.23;64498.66;5073657;28;20216;-56
2023/10/25 01:15:51;;;;;;;12.80;4.55;;;;;;;14.60;96.30;64492.06;5073685;28;20593;-54
2023/10/25 01:18:17;;;;;;;10.73;4.93;;;;;;;14.50;96.11;64481.66;5073280;28;20683;-54
2023/10/25 01:20:43;;;;;;;16.27;3.83;;;;;;;14.29;97.06;64461.66;5055536;28;20347;-54
2023/10/25 01:23:09;;;;;;;7.47;3.90;;;;;;;14.38;98.58;64467.91;5073795;28;20239;-51
2023/10/25 01:25:35;;;;;;;9.13;4.18;;;;;;;14.55;96.24;64489.09;5073406;28;20287;-52
2023/10/25 01:28:00;;;;;;;13.30;5.18;;;;;;;14.40;97.17;64472.63;5073616;28;20698;-53
2023/10/25 01:30:26;;;;;;;8.73;4.05;;;;;;;14.51;95.52;64484.72;5073363;28;20316;-53
2023/10/25 01:32:53;;;;;;;13.55;4.30;;;;;;;14.49;95.57;64480.53;5073035;28;20233;-52
2023/10/25 01:35:20;;;;;;;12.40;4.75;;;;;;;14.30;97.86;64459.66;5073403;28;20305;-55
2023/10/25 01:37:45;;;;;;;12.27;4.07;;;;;;;14.40;96.81;64473.19;5073144;28;20668;-54
2023/10/25 01:40:11;;;;;;;14.02;4.50;;;;;;;14.45;97.14;64478.69;5073160;28;20197;-53
2023/10/25 01:42:38;;;;;;;10.80;3.78;;;;;;;14.48;97.92;64479.44;5073277;28;20683;-53
2023/10/25 01:45:04;;;;;;;16.15;4.45;;;;;;;14.60;94.79;64495.16;5073081;28;20220;-52
2023/10/25 01:47:30;;;;;;;12.38;4.50;;;;;;;14.37;97.91;64469.34;5055187;28;20568;-52
2023/10/25 01:49:56;;;;;;;12.02;4.13;;;;;;;14.40;96.73;64470.09;5072965;28;20205;-51
2023/10/25 01:52:21;;;;;;;11.57;4.05;;;;;;;14.47;96.88;64480.31;5072863;28;20208;-52
2023/10/25 01:54:50;;;;;;;11.05;4.00;;;;;;;14.50;95.88;64481.66;5073058;28;20220;-51
2023/10/25 01:57:19;;;;;;;8.55;4.13;;;;;;;14.32;97.68;64459.34;5072914;28;20224;-52
2023/10/25 01:59:45;;;;;;;13.90;3.95;;;;;;;14.36;96.74;64465.72;5073073;28;20306;-54
2023/10/25 02:02:11;;;;;;;8.82;4.50;;;;;;;14.21;97.88;64449.75;5072769;28;20213;-51
2023/10/25 02:04:37;;;;;;;12.65;4.28;;;;;;;14.42;97.65;64475.38;5054834;28;20217;-51
2023/10/25 02:07:03;;;;;;;12.95;4.85;;;;;;;14.32;98.77;64461.31;5072956;28;20247;-52
2023/10/25 02:09:29;;;;;;;15.35;4.55;;;;;;;14.38;97.72;64471.00;5037702;28;20675;-51
2023/10/25 02:11:54;;;;;;;13.98;4.55;;;;;;;14.56;97.52;64490.22;5072719;28;20209;-53
2023/10/25 02:14:20;;;;;;;9.15;4.10;;;;;;;14.51;95.04;64482.19;5072816;28;20711;-51
2023/10/25 02:16:46;;;;;;;11.15;4.25;;;;;;;14.41;96.23;64469.22;5072705;28;20586;-51
2023/10/25 02:19:11;;;;;;;13.00;4.63;;;;;;;14.43;95.57;64476.47;5072614;28;20195;-51
2023/10/25 02:21:36;;;;;;;11.63;4.00;;;;;;;14.56;96.48;64487.69;5072386;28;20638;-54
2023/10/25 02:24:05;;;;;;;10.00;3.90;;;;;;;14.53;95.32;64484.94;5072740;28;20260;-51
2023/10/25 02:26:31;;;;;;;13.73;4.10;;;;;;;14.41;96.56;64473.72;5072418;28;20228;-52
2023/10/25 02:28:57;;;;;;;10.05;4.13;;;;;;;14.38;97.45;64471.00;5072495;28;20662;-53
2023/10/25 02:31:23;;;;;;;10.80;3.50;;;;;;;14.53;96.77;64486.91;5072319;28;20212;-51
2023/10/25 02:33:48;;;;;;;9.63;3.47;;;;;;;14.58;96.85;64492.97;5072441;28;20197;-52
2023/10/25 02:36:13;;;;;;;19.33;5.13;;;;;;;14.44;95.82;64475.06;5072105;28;20595;-51
2023/10/25 02:38:39;;;;;;;17.27;4.53;;;;;;;14.43;95.99;64475.94;5072291;28;20300;-52
2023/10/25 02:41:04;;;;;;;10.40;4.05;;;;;;;14.37;95.58;64469.34;5072119;28;20257;-51
2023/10/25 02:43:30;;;;;;;9.20;3.92;;;;;;;14.58;95.88;64489.88;5072033;28;20595;-55
2023/10/25 02:46:08;;;;;;;11.00;4.30;;;;;;;14.51;94.24;64482.72;5072177;28;20562;-51
2023/10/25 02:48:37;;;;;;;15.07;4.68;;;;;;;14.38;95.94;64467.91;5071923;28;20251;-52
2023/10/25 02:51:04;;;;;;;17.17;4.03;;;;;;;14.49;95.28;64483.06;5071971;28;20177;-51
2023/10/25 02:53:33;;;;;;;18.80;4.75;;;;;;;14.54;94.63;64485.47;5072536;28;20215;-51
2023/10/25 02:56:03;;;;;;;15.60;4.72;;;;;;;14.54;94.31;64486.03;5071936;28;20204;-52
2023/10/25 02:58:29;;;;;;;18.25;4.85;;;;;;;14.28;96.25;64460.00;5054054;28;20225;-51
2023/10/25 03:00:56;;;;;;;13.30;4.60;;;;;;;14.65;93.78;64495.59;5072059;28;20207;-52
2023/10/25 03:03:22;;;;;;;12.15;5.57;;;;;;;14.68;94.40;64503.97;5072041;28;20670;-53
2023/10/25 03:05:48;;;;;;;10.15;3.63;;;;;;;14.52;95.06;64485.81;5071864;28;20199;-53
2023/10/25 03:08:13;;;;;;;11.45;4.03;;;;;;;14.43;95.87;64476.47;5071767;28;20217;-59
2023/10/25 03:10:39;;;;;;;11.35;4.38;;;;;;;14.30;95.96;64459.66;5071736;28;20250;-51
2023/10/25 03:13:04;;;;;;;12.52;3.78;;;;;;;14.30;96.02;64460.19;5053802;28;20249;-53
2023/10/25 03:15:30;;;;;;;12.38;4.85;;;;;;;14.69;94.72;64501.97;5072288;28;20268;-54
2023/10/25 03:17:55;;;;;;;10.45;3.47;;;;;;;14.80;92.94;64514.63;5071794;28;20282;-52
2023/10/25 03:20:28;;;;;;;13.20;3.83;;;;;;;14.52;95.42;64481.31;5053662;28;20223;-52
2023/10/25 03:22:54;;;;;;;12.95;4.32;;;;;;;14.60;95.19;64492.63;5070802;28;20235;-52
2023/10/25 03:25:19;;;;;;;13.70;4.57;;;;;;;14.58;95.42;64490.44;5071671;28;20205;-52
2023/10/25 03:27:45;;;;;;;9.02;4.05;;;;;;;14.57;95.97;64486.22;5071483;28;20213;-51
2023/10/25 03:30:11;;;;;;;15.93;4.30;;;;;;;14.73;95.79;64506.91;5071499;28;20207;-54
2023/10/25 03:32:36;;;;;;;14.35;4.63;;;;;;;14.62;94.61;64494.84;5071307;28;20220;-51
2023/10/25 03:35:02;;;;;;;15.18;3.80;;;;;;;14.92;93.64;64527.81;5071398;28;20226;-51
2023/10/25 03:37:28;;;;;;;11.60;4.38;;;;;;;14.84;96.08;64521.53;5071708;28;20228;-55
2023/10/25 03:39:53;;;;;;;11.60;4.00;;;;;;;14.66;94.93;64498.66;5071419;28;20655;-52
2023/10/25 03:42:19;;;;;;;7.53;3.30;;;;;;;14.71;94.72;64506.69;5071107;28;20228;-53
2023/10/25 03:44:44;;;;;;;16.05;4.35;;;;;;;14.64;95.20;64499.56;5071271;28;20201;-56
2023/10/25 03:47:10;;;;;;;11.73;3.88;;;;;;;14.92;93.45;64527.81;5071262;28;20208;-52
2023/10/25 03:49:35;;;;;;;11.63;4.25;;;;;;;14.81;93.97;64515.16;5053323;28;20188;-52
2023/10/25 03:52:00;;;;;;;15.13;4.68;;;;;;;14.66;96.47;64501.22;5071216;28;20617;-52
2023/10/25 03:54:26;;;;;;;13.63;4.45;;;;;;;14.49;96.15;64483.06;5071323;28;20203;-52
2023/10/25 03:56:52;;;;;;;12.35;5.25;;;;;;;14.63;95.39;64497.91;5071202;28;20220;-52
2023/10/25 03:59:17;;;;;;;12.48;4.88;;;;;;;14.39;96.02;64472.09;5071158;28;20207;-52
2023/10/25 04:01:43;;;;;;;10.98;5.00;;;;;;;14.41;96.18;64473.72;5053032;28;20683;-50
2023/10/25 04:04:09;;;;;;;14.30;5.18;;;;;;;14.23;97.67;64449.41;5071012;28;20290;-52
2023/10/25 04:06:36;;;;;;;22.08;5.78;;;;;;;14.31;97.56;64460.75;5071023;28;20635;-53
2023/10/25 04:09:02;;;;;;;15.23;5.68;;;;;;;14.47;97.41;64475.25;5052956;28;20208;-53
2023/10/25 04:11:27;;;;;;;11.75;5.15;;;;;;;14.32;97.68;64462.41;5070865;28;20205;-54
2023/10/25 04:13:53;;;;;;;13.40;5.53;;;;;;;14.17;98.92;64445.91;5071005;28;20196;-54
2023/10/25 04:16:18;;;;;;;17.38;5.40;;;;;;;14.37;98.03;64466.78;5070819;28;20185;-54
2023/10/25 04:18:43;;;;;;;14.63;4.97;;;;;;;14.36;97.27;64466.25;5070688;28;20211;-57
2023/10/25 04:21:11;;;;;;;13.82;5.10;;;;;;;14.37;97.77;64466.78;5070865;28;20206;-53
2023/10/25 04:23:37;;;;;;;15.45;5.32;;;;;;;14.39;97.87;64472.09;5071120;28;20201;-54
2023/10/25 04:26:10;;;;;;;15.88;5.88;;;;;;;14.17;99.96;64447.91;5070878;28;20238;-54
2023/10/25 04:28:37;;;;;;;10.95;5.07;;;;;;;14.11;100.00;64441.84;5070518;28;20197;-53
2023/10/25 04:31:09;;;;;;;16.90;5.45;;;;;;;14.38;98.90;64467.91;5070597;28;20204;-53
2023/10/25 04:33:36;;;;;;;11.20;5.10;;;;;;;14.26;99.78;64457.78;5070230;28;20696;-54
2023/10/25 04:36:06;;;;;;;21.88;5.93;;;;;;;14.14;100.00;64442.06;5070625;28;20231;-54
2023/10/25 04:38:31;;;;;;;18.15;5.78;;;;;;;14.16;100.00;64444.25;5070524;28;20283;-54
2023/10/25 04:40:57;;;;;;;14.02;5.57;;;;;;;14.30;100.00;64460.19;5070579;28;20280;-54
2023/10/25 04:43:23;;;;;;;16.73;6.20;;;;;;;14.34;100.00;64460.97;5070694;28;20690;-53
2023/10/25 04:45:51;;;;;;;17.00;5.35;;;;;;;14.65;97.83;64495.03;5070484;28;20165;-54
2023/10/25 04:48:16;;;;;;;11.55;4.70;;;;;;;14.41;98.58;64474.28;5070063;28;20714;-54
2023/10/25 04:50:42;;;;;;;12.30;5.00;;;;;;;14.58;97.34;64492.41;5070470;28;20199;-54
2023/10/25 04:53:08;;;;;;;11.18;5.40;;;;;;;14.44;98.11;64474.50;5070493;28;20273;-54
2023/10/25 04:55:34;;;;;;;16.23;5.80;;;;;;;14.48;99.00;64481.97;5070209;28;20612;-53
2023/10/25 04:58:00;;;;;;;17.35;5.40;;;;;;;14.72;98.79;64505.81;5070179;28;20231;-53
2023/10/25 05:00:27;;;;;;;15.55;6.07;;;;;;;14.70;97.13;64506.16;5070144;28;20208;-54
2023/10/25 05:02:53;;;;;;;9.88;6.07;;;;;;;14.55;98.78;64487.13;5052241;28;20699;-54
2023/10/25 05:05:18;;;;;;;16.30;5.38;;;;;;;14.54;98.32;64488.03;5070473;28;20193;-54
2023/10/25 05:07:55;;;;;;;14.68;5.15;;;;;;;14.83;97.08;64517.91;5070638;28;20209;-53
2023/10/25 05:10:21;;;;;;;17.75;6.10;;;;;;;14.77;96.54;64513.28;5052277;28;20208;-52
2023/10/25 05:12:48;;;;;;;14.57;5.45;;;;;;;14.83;95.60;64517.91;5052335;28;20205;-52
2023/10/25 05:15:19;;;;;;;22.02;6.13;;;;;;;14.63;98.46;64495.38;5052296;28;20204;-55
2023/10/25 05:17:48;;;;;;;18.90;5.97;;;;;;;14.60;98.58;64492.63;5052250;28;20216;-53
2023/10/25 05:20:14;;;;;;;13.70;5.75;;;;;;;14.68;99.44;64498.88;5070123;28;20565;-54
2023/10/25 05:22:41;;;;;;;25.85;6.75;;;;;;;14.74;99.04;64507.47;5069947;28;20215;-53
2023/10/25 05:25:09;;;;;;;12.27;5.47;;;;;;;14.73;99.74;64506.34;5052118;28;20351;-52
2023/10/25 05:27:35;;;;;;;15.38;5.85;;;;;;;14.73;100.00;64506.91;5070229;28;20245;-52
2023/10/25 05:30:04;;;;;;;14.70;6.20;;;;;;;14.97;98.44;64530.75;5051968;28;20211;-53
2023/10/25 05:32:32;;;;;;;18.98;6.32;;;;;;;15.08;95.38;64545.41;5052217;28;20209;-53
2023/10/25 05:35:00;;;;;;;17.02;5.85;;;;;;;14.83;98.45;64522.97;5052075;28;20204;-53
2023/10/25 05:37:26;;;;;;;19.63;7.10;;;;;;;14.85;97.20;64522.63;5078225;22;20244;-51
2023/10/25 05:39:52;;;;;;;20.67;7.05;;;;;;;15.04;95.13;64543.53;5069974;28;20249;-56
2023/10/25 05:42:19;;;;;;;19.20;5.50;;;;;;;15.05;95.97;64541.53;5069700;28;20607;-52
2023/10/25 05:44:46;;;;;;;18.70;6.13;;;;;;;14.98;96.69;64536.94;5070736;28;20188;-54
2023/10/25 05:47:14;;;;;;;17.85;6.53;;;;;;;15.19;96.37;64556.38;5073779;28;20212;-54
2023/10/25 05:49:40;;;;;;;16.00;6.03;;;;;;;15.15;95.31;64552.53;5073052;28;20196;-54
2023/10/25 05:52:07;;;;;;;21.23;6.13;;;;;;;15.18;95.00;64555.28;5072761;28;20704;-56
2023/10/25 05:54:35;;;;;;;19.63;5.93;;;;;;;15.25;94.63;64562.97;5054319;28;20310;-52
2023/10/25 05:57:01;;;;;;;24.85;6.15;;;;;;;15.43;93.08;64583.34;5073223;28;20217;-54
2023/10/25 05:59:28;;;;;;;23.52;6.55;;;;;;;15.24;95.72;64561.88;5055458;28;20185;-52
2023/10/25 06:02:14;;;;;;;19.52;5.80;;;;;;;15.30;95.86;64571.56;5054985;28;20223;-53
2023/10/25 06:04:42;;;;;;;17.45;6.40;;;;;;;15.49;93.00;64587.41;5073141;28;20253;-54
2023/10/25 06:07:12;;;;;;;22.80;6.40;;;;;;;15.61;93.10;64605.69;5073118;28;20308;-52
2023/10/25 06:09:38;;;;;;;21.98;8.40;;;;;;;15.49;95.20;64589.97;5073207;28;20193;-52
2023/10/25 06:12:05;;;;;;;19.98;7.55;;;;;;;15.43;95.52;64585.34;5072810;28;20212;-52
2023/10/25 06:14:32;;;;;;;17.00;7.60;;;;;;;15.67;94.21;64611.75;5054856;28;20200;-53
2023/10/25 06:16:58;;;;;;;22.05;8.15;;;;;;;15.48;95.81;64591.38;5072758;28;20216;-52
2023/10/25 06:19:25;;;;;;;14.93;6.75;;;;;;;15.82;92.85;64628.22;5072910;28;20185;-52
2023/10/25 06:21:51;;;;;;;22.80;7.70;;;;;;;15.77;92.36;64618.22;5072648;28;20209;-52
2023/10/25 06:24:17;;;;;;;27.30;7.40;;;;;;;15.85;91.60;64626.47;5072919;28;20235;-52
2023/10/25 06:26:42;;;;;;;19.52;7.35;;;;;;;15.91;92.55;64633.06;5072589;28;20208;-53
2023/10/25 06:29:08;;;;;;;18.20;7.25;;;;;;;16.02;92.25;64650.25;5073009;28;20216;-52
2023/10/25 06:31:33;;;;;;;21.20;8.05;;;;;;;16.01;93.20;64646.59;5072636;28;20220;-52
2023/10/25 06:33:59;;;;;;;14.07;7.10;;;;;;;16.12;93.62;64658.16;5072643;28;20216;-52
2023/10/25 06:36:32;;;;;;;28.90;8.52;;;;;;;16.43;90.61;64692.84;5072455;28;20230;-53
2023/10/25 06:38:58;;;;;;;21.40;8.75;;;;;;;16.45;89.21;64695.03;5072445;28;20221;-55
2023/10/25 06:41:24;;;;;;;27.85;8.38;;;;;;;16.16;91.55;64663.09;5072218;28;20628;-55
2023/10/25 06:43:50;;;;;;;22.50;8.60;;;;;;;16.12;92.03;64656.16;5072468;28;20205;-51
2023/10/25 06:46:15;;;;;;;23.42;8.30;;;;;;;16.33;88.19;64684.38;5072153;28;20197;-51
2023/10/25 06:48:41;;;;;;;22.20;7.95;;;;;;;16.24;90.82;64671.38;5072337;28;20205;-52
2023/10/25 06:51:09;;;;;;;15.95;6.65;;;;;;;16.31;90.50;64676.53;5072037;28;20201;-53
2023/10/25 06:53:38;;;;;;;26.48;7.47;;;;;;;16.47;90.30;64694.69;5072890;28;20220;-55
2023/10/25 06:56:05;;;;;;;23.05;7.22;;;;;;;16.58;90.54;64706.28;5071964;28;20204;-54
2023/10/25 06:58:31;;;;;;;18.60;7.05;;;;;;;16.75;85.30;64728.09;5072353;28;20215;-54
2023/10/25 07:00:58;;;;;;;23.85;7.97;;;;;;;16.85;86.61;64738.00;5072158;28;20291;-53
2023/10/25 07:03:30;;;;;;;19.92;6.82;;;;;;;16.74;86.18;64727.00;5043781;22;20213;-56
2023/10/25 07:05:59;;;;;;;14.38;6.53;;;;;;;16.86;86.32;64736.56;5052016;28;20197;-52
2023/10/25 07:08:24;;;;;;;15.75;5.85;;;;;;;17.00;86.71;64754.53;5052253;28;20213;-56
2023/10/25 07:10:50;;;;;;;20.48;6.90;;;;;;;17.06;87.11;64761.69;5052080;28;20193;-55
2023/10/25 07:13:16;;;;;;;20.52;6.15;;;;;;;17.17;84.93;64773.78;5052110;28;20208;-53
2023/10/25 07:15:41;;;;;;;16.08;5.80;;;;;;;17.17;85.82;64770.72;5050541;28;20248;-55
2023/10/25 07:18:07;;;;;;;15.55;5.07;;;;;;;17.22;84.09;64778.75;5051530;28;20241;-58
2023/10/25 07:20:33;;;;;;;20.17;5.22;;;;;;;17.44;80.59;64800.44;5033851;28;20278;-54
2023/10/25 07:22:58;;;;;;;19.17;5.53;;;;;;;17.25;81.95;64782.06;5051907;28;20603;-55
2023/10/25 07:25:24;;;;;;;16.98;4.90;;;;;;;17.25;83.01;64779.53;5050673;28;20217;-55
2023/10/25 07:27:49;;;;;;;22.00;5.40;;;;;;;17.39;81.04;64798.03;5051672;28;20687;-54
2023/10/25 07:30:15;;;;;;;24.10;7.00;;;;;;;17.40;81.91;64794.03;5050586;28;20659;-55
2023/10/25 07:32:41;;;;;;;22.25;7.45;;;;;;;17.54;79.92;64814.59;5051971;28;20599;-55
2023/10/25 07:35:07;;;;;;;26.40;8.13;;;;;;;17.52;79.65;64809.28;5050471;28;20224;-55
2023/10/25 07:37:33;;;;;;;28.38;7.97;;;;;;;17.35;78.39;64793.63;5060671;22;20225;-53
2023/10/25 07:39:58;;;;;;;32.60;8.52;;;;;;;17.16;81.67;64769.59;5070752;28;20779;-55
2023/10/25 07:42:24;;;;;;;22.35;7.82;;;;;;;17.37;81.56;64795.81;5071288;28;20197;-55
2023/10/25 07:44:50;;;;;;;22.85;7.70;;;;;;;17.36;81.96;64792.19;5071492;28;20712;-55
2023/10/25 07:47:17;;;;;;;27.95;6.93;;;;;;;17.34;81.36;64789.44;5053363;28;20204;-55
2023/10/25 07:49:45;;;;;;;23.05;6.97;;;;;;;17.43;80.27;64801.91;5053929;28;20213;-55
2023/10/25 07:52:12;;;;;;;16.10;5.70;;;;;;;17.42;79.36;64798.81;5071391;28;20212;-53
2023/10/25 07:54:37;;;;;;;23.83;6.72;;;;;;;17.56;77.57;64813.69;5071449;28;20279;-55
2023/10/25 07:57:04;;;;;;;23.25;6.40;;;;;;;17.51;80.04;64808.72;5071216;28;20623;-55
2023/10/25 07:59:29;;;;;;;28.02;7.47;;;;;;;17.61;78.83;64822.28;5071403;28;20245;-55
2023/10/25 08:01:58;;;;;;;26.63;7.78;;;;;;;17.83;76.49;64845.44;5071175;28;20377;-57
2023/10/25 08:04:23;;;;;;;25.42;7.43;;;;;;;17.86;74.16;64849.31;5071308;28;20192;-54
2023/10/25 08:06:49;;;;;;;24.27;7.18;;;;;;;17.84;73.66;64844.56;5071295;28;20211;-53
2023/10/25 08:09:14;;;;;;;24.20;6.50;;;;;;;17.86;72.65;64851.84;5052850;28;20509;-56
2023/10/25 08:11:40;;;;;;;24.63;6.18;;;;;;;17.89;71.93;64852.06;5070913;28;20204;-56
2023/10/25 08:14:06;;;;;;;22.13;6.43;;;;;;;17.84;71.96;64842.00;5053460;28;20207;-54
2023/10/25 08:16:32;;;;;;;22.52;7.13;;;;;;;17.80;72.41;64840.16;5070836;28;20570;-54
2023/10/25 08:18:58;;;;;;;24.67;6.63;;;;;;;17.87;73.37;64849.88;5071151;28;20229;-53
2023/10/25 08:21:26;;;;;;;21.00;6.93;;;;;;;17.90;75.27;64853.72;5052891;28;20278;-54
2023/10/25 08:23:51;;;;;;;21.73;6.60;;;;;;;18.09;74.98;64876.66;5070974;28;20201;-55
2023/10/25 08:26:21;;;;;;;20.27;6.68;;;;;;;18.17;75.89;64880.38;5052865;28;20224;-55
2023/10/25 08:28:47;;;;;;;21.45;7.05;;;;;;;18.22;72.18;64888.47;5070592;28;20209;-57
2023/10/25 08:31:14;;;;;;;29.25;7.22;;;;;;;18.19;71.99;64887.69;5052883;28;20265;-59
2023/10/25 08:33:40;;;;;;;22.15;7.68;;;;;;;18.10;72.78;64872.69;5070765;28;20197;-61
2023/10/25 08:36:07;;;;;;;22.83;6.53;;;;;;;18.16;73.31;64879.28;5070728;28;20197;-54
2023/10/25 08:38:34;;;;;;;19.95;6.97;;;;;;;18.06;73.44;64870.81;5052730;28;20306;-54
2023/10/25 08:41:06;;;;;;;18.10;6.30;;;;;;;18.17;73.65;64883.50;5052837;28;20192;-54
2023/10/25 08:43:33;;;;;;;20.92;6.60;;;;;;;18.40;72.51;64906.28;5070805;28;20209;-54
2023/10/25 08:46:04;;;;;;;28.25;6.30;;;;;;;18.38;73.04;64903.56;5036079;28;20257;-58
2023/10/25 08:48:31;;;;;;;24.95;5.70;;;;;;;18.60;70.90;64927.28;5070795;28;20228;-53
2023/10/25 08:50:59;;;;;;;22.05;6.47;;;;;;;18.73;69.06;64939.63;5070828;28;20718;-54
2023/10/25 08:53:26;;;;;;;27.60;7.10;;;;;;;18.54;69.65;64921.22;5070732;28;20274;-55
2023/10/25 08:55:53;;;;;;;21.60;6.03;;;;;;;18.76;67.49;64944.94;5052586;28;20196;-54
2023/10/25 08:58:25;;;;;;;21.45;7.22;;;;;;;18.73;67.62;64942.19;5070569;28;20303;-53
2023/10/25 09:00:54;;;;;;;24.02;6.35;;;;;;;19.06;66.71;64981.16;5052421;28;20265;-54
2023/10/25 09:03:32;;;;;;;23.33;6.20;;;;;;;19.15;67.99;64988.53;5070103;28;20600;-57
2023/10/25 09:05:59;;;;;;;18.45;5.60;;;;;;;19.14;66.07;64989.97;5070306;28;20204;-54
2023/10/25 09:08:26;;;;;;;24.17;6.45;;;;;;;19.47;63.68;65018.22;5052365;28;20793;-54
2023/10/25 09:11:02;;;;;;;28.25;7.10;;;;;;;19.64;63.10;65044.66;5070196;28;20296;-54
2023/10/25 09:13:37;;;;;;;34.38;9.05;;;;;;;19.63;62.46;65041.00;5070030;28;20670;-54
2023/10/25 09:16:06;;;;;;;24.33;6.25;;;;;;;19.72;62.47;65048.38;5036339;28;20320;-54
2023/10/25 09:18:34;;;;;;;27.85;5.97;;;;;;;19.74;62.02;65053.13;5070350;28;20247;-53
2023/10/25 09:21:02;;;;;;;32.17;6.38;;;;;;;19.59;62.37;65036.56;5072637;28;20219;-54
2023/10/25 09:23:28;;;;;;;23.67;6.78;;;;;;;19.71;63.19;65049.28;5073704;28;20354;-54
2023/10/25 09:25:58;;;;;;;19.35;5.32;;;;;;;19.77;63.71;65056.44;5073270;28;20291;-54
2023/10/25 09:28:29;;;;;;;29.65;6.13;;;;;;;19.95;61.10;65078.34;5055498;28;20219;-54
2023/10/25 09:31:01;;;;;;;20.50;5.47;;;;;;;19.85;62.26;65065.28;5055611;28;20204;-54
2023/10/25 09:33:31;;;;;;;17.08;6.13;;;;;;;19.91;62.78;65073.91;5073440;28;20355;-59
2023/10/25 09:35:57;;;;;;;23.80;6.22;;;;;;;20.03;61.20;65085.16;5073539;28;20215;-53
2023/10/25 09:38:24;;;;;;;29.70;6.10;;;;;;;19.87;62.57;65067.50;5073117;28;20244;-53
2023/10/25 09:40:50;;;;;;;30.52;7.20;;;;;;;19.86;62.03;65068.94;5073415;28;20193;-54
2023/10/25 09:43:19;;;;;;;23.17;6.57;;;;;;;19.96;62.47;65074.88;5073299;28;20217;-54
2023/10/25 09:45:56;;;;;;;23.90;5.80;;;;;;;20.04;62.85;65088.81;5073447;28;20276;-53
2023/10/25 09:48:22;;;;;;;27.45;7.28;;;;;;;20.22;61.98;65105.06;5073278;28;20274;-52
2023/10/25 09:51:06;;;;;;;22.83;6.07;;;;;;;20.01;62.96;65082.41;5073163;28;20188;-52
2023/10/25 09:53:58;;;;;;;25.65;7.03;;;;;;;20.19;64.07;65099.16;5073259;28;20208;-52
2023/10/25 09:56:23;;;;;;;27.13;5.93;;;;;;;20.21;62.86;65103.97;5073267;28;20221;-52
2023/10/25 09:58:52;;;;;;;23.02;6.55;;;;;;;20.38;62.22;65122.75;5072986;28;20221;-52
2023/10/25 10:01:17;;;;;;;25.92;6.45;;;;;;;20.76;61.51;65165.31;5073103;28;20671;-52
2023/10/25 10:03:54;;;;;;;25.27;5.82;;;;;;;20.95;61.09;65185.72;5073490;28;20192;-52
2023/10/25 10:06:19;;;;;;;30.38;6.68;;;;;;;22.00;57.76;65300.81;5054993;28;20226;-52
2023/10/25 10:08:57;;;;;;;29.05;5.85;;;;;;;22.20;56.73;65322.97;5072927;28;20607;-52
2023/10/25 10:11:27;;;;;;;25.23;5.75;;;;;;;21.72;56.29;65270.38;5072833;28;20223;-51
2023/10/25 10:14:31;;;;;;;27.17;6.40;;;;;;;21.68;57.49;65265.94;5073170;28;20201;-55
2023/10/25 10:16:59;;;;;;;23.10;6.55;;;;;;;21.69;55.89;65264.50;5072744;28;20212;-54
2023/10/25 10:19:24;;;;;;;25.10;5.50;;;;;;;21.53;56.16;65246.78;5054560;28;20260;-54
2023/10/25 10:22:07;;;;;;;22.77;5.93;;;;;;;21.71;54.49;65269.25;5054460;28;20215;-55
2023/10/25 10:24:48;;;;;;;36.33;7.10;;;;;;;21.57;56.32;65254.31;5073072;28;20200;-55
2023/10/25 10:27:19;;;;;;;25.77;5.45;;;;;;;21.62;56.81;65262.44;5072460;28;20216;-54
2023/10/25 10:29:51;;;;;;;20.10;5.93;;;;;;;21.59;56.25;65259.09;5072636;28;20204;-55
2023/10/25 10:32:17;;;;;;;25.73;6.32;;;;;;;21.54;57.73;65251.00;5053979;28;20208;-53
2023/10/25 10:34:57;;;;;;;33.50;6.53;;;;;;;21.61;56.57;65256.19;5072446;28;20208;-55
2023/10/25 10:37:24;;;;;;;20.55;6.10;;;;;;;21.59;57.33;65256.00;5072276;28;20300;-54
2023/10/25 10:40:10;;;;;;;33.47;7.90;;;;;;;21.68;55.42;65260.81;5072329;28;20275;-55
2023/10/25 10:42:36;;;;;;;27.85;6.75;;;;;;;21.71;55.16;65269.81;5072476;28;20642;-54
2023/10/25 10:45:06;;;;;;;30.83;6.72;;;;;;;21.80;55.86;65279.22;5072548;28;20193;-55
2023/10/25 10:47:42;;;;;;;33.30;7.63;;;;;;;21.77;54.07;65279.00;5072446;28;20283;-55
2023/10/25 10:50:14;;;;;;;37.40;6.80;;;;;;;21.57;55.31;65254.31;5072394;28;20283;-55
2023/10/25 10:52:40;;;;;;;36.55;6.47;;;;;;;21.82;53.37;65278.31;5072346;28;20206;-56
2023/10/25 10:55:08;;;;;;;39.92;7.38;;;;;;;21.60;55.47;65257.66;5072015;28;20209;-54
2023/10/25 10:57:36;;;;;;;29.58;6.35;;;;;;;21.69;54.05;65267.59;5072048;28;20299;-55
2023/10/25 11:00:04;;;;;;;43.70;7.70;;;;;;;21.87;53.92;65283.88;5071945;28;20204;-53
2023/10/25 11:02:30;;;;;;;41.85;6.97;;;;;;;21.87;53.30;65289.00;5071908;28;20244;-52
2023/10/25 11:04:55;;;;;;;31.40;6.35;;;;;;;22.29;50.01;65330.91;5071809;28;20235;-52
2023/10/25 11:07:20;;;;;;;43.63;7.55;;;;;;;22.61;48.91;65367.78;5071663;28;20208;-52
2023/10/25 11:09:46;;;;;;;43.58;8.27;;;;;;;22.71;47.91;65379.44;5071882;28;20201;-52
2023/10/25 11:12:14;;;;;;;31.45;6.95;;;;;;;22.79;47.19;65385.72;5071774;28;20620;-53
2023/10/25 11:14:45;;;;;;;42.35;8.23;;;;;;;22.82;47.79;65391.06;5037634;28;20201;-53
2023/10/25 11:17:12;;;;;;;37.53;7.20;;;;;;;22.83;47.67;65390.16;5071604;28;20232;-53
2023/10/25 11:19:37;;;;;;;34.17;8.15;;;;;;;22.78;47.68;65387.19;5071617;28;20200;-52
2023/10/25 11:22:04;;;;;;;43.97;8.38;;;;;;;22.76;47.99;65384.97;5071568;28;20299;-51
2023/10/25 11:24:30;;;;;;;41.75;8.50;;;;;;;22.79;47.86;65387.72;5053799;28;20693;-52